Terminal Aerodrome Forecast
Issued by NWS

Home | Current Version | Previous Version | Text Only | Print | Product List | Glossary On
Versions: 1 2 3 4 5 6 7 8 9 10 11 12 13 14 15 16
581
FTUS43 KAPX 182019 AAA
TAFTVC
TAF AMD
KTVC 182019Z 1820/1918 29008KT P6SM FEW015 OVC025
     FM190000 31006KT P6SM BKN040
     FM190300 VRB03KT P6SM SCT040 BKN120
     FM191500 29008KT P6SM BKN035 BKN150=

USA.gov is the U.S. government's official web portal to all federal, state and local government web resources and services.